Time;durP1;ratioP1;P1;durP2;ratioP2;P2;SDS_P1;SDS_P2;PMS_P1;PMS_P2;Temp;Humidity;BMP_temperature;BMP_pressure;BME280_temperature;BME280_humidity;BME280_pressure;Samples;Min_cycle;Max_cycle;Signal;HPM_P1;HPM_P2
2022/01/15 00:01:13;;;;;;;12.32;6.80;;;0.50;72.60;;;;;;4990977;28;20583;-73
2022/01/15 00:03:43;;;;;;;13.10;6.22;;;0.50;72.50;;;;;;4991701;28;20559;-72
2022/01/15 00:06:10;;;;;;;7.85;5.53;;;0.50;72.00;;;;;;4991314;28;20204;-75
2022/01/15 00:08:40;;;;;;;11.27;7.00;;;0.50;72.20;;;;;;4992173;28;20201;-73
2022/01/15 00:11:09;;;;;;;11.15;7.78;;;0.50;73.00;;;;;;4990819;28;20216;-73
2022/01/15 00:13:43;;;;;;;12.02;7.30;;;0.50;73.80;;;;;;4991520;28;20203;-73
2022/01/15 00:16:28;;;;;;;9.80;6.00;;;0.50;75.40;;;;;;4990413;28;20238;-73
2022/01/15 00:19:08;;;;;;;12.00;7.85;;;0.60;74.70;;;;;;4991308;28;20196;-72
2022/01/15 00:21:41;;;;;;;12.82;7.65;;;0.60;74.60;;;;;;4990277;28;20311;-72
2022/01/15 00:24:15;;;;;;;14.73;8.10;;;0.60;73.90;;;;;;4991280;28;20193;-72
2022/01/15 00:26:42;;;;;;;11.65;7.85;;;0.60;73.80;;;;;;4990189;28;20181;-73
2022/01/15 00:29:29;;;;;;;9.85;7.13;;;0.60;74.00;;;;;;4991259;28;20662;-72
2022/01/15 00:31:58;;;;;;;11.82;6.90;;;0.50;74.30;;;;;;4990314;28;20181;-72
2022/01/15 00:34:27;;;;;;;9.43;6.88;;;0.50;73.50;;;;;;4991310;28;20573;-72
2022/01/15 00:36:56;;;;;;;12.45;6.75;;;0.50;73.50;;;;;;4989562;28;20185;-73
2022/01/15 00:39:28;;;;;;;8.50;6.50;;;0.50;73.90;;;;;;4990559;28;20217;-73
2022/01/15 00:42:01;;;;;;;12.40;6.70;;;0.50;73.80;;;;;;4990361;28;20189;-72
2022/01/15 00:44:28;;;;;;;8.55;5.93;;;0.40;73.20;;;;;;4990213;28;20256;-73
2022/01/15 00:46:57;;;;;;;9.30;5.82;;;0.40;73.20;;;;;;4990108;28;20228;-75
2022/01/15 00:49:29;;;;;;;9.35;6.97;;;0.50;73.70;;;;;;4990482;28;20193;-73
2022/01/15 00:52:01;;;;;;;15.30;7.75;;;0.50;73.90;;;;;;4990324;28;20192;-74
2022/01/15 00:54:28;;;;;;;12.82;5.93;;;0.50;73.20;;;;;;4990648;28;20192;-73
2022/01/15 00:57:00;;;;;;;8.25;6.38;;;0.40;72.60;;;;;;4990566;28;20189;-73
2022/01/15 00:59:31;;;;;;;9.65;7.72;;;0.40;72.20;;;;;;4990409;28;20591;-73
2022/01/15 01:02:12;;;;;;;14.88;7.88;;;0.40;72.90;;;;;;4991036;28;20255;-72
2022/01/15 01:04:39;;;;;;;13.55;7.28;;;0.30;73.20;;;;;;4971842;28;20205;-72
2022/01/15 01:07:08;;;;;;;11.48;6.55;;;0.30;73.20;;;;;;4971364;28;20193;-75
2022/01/15 01:09:57;;;;;;;15.85;7.65;;;0.30;72.60;;;;;;4970982;28;20199;-72
2022/01/15 01:12:45;;;;;;;10.50;6.72;;;0.20;72.00;;;;;;4971826;28;20201;-77
2022/01/15 01:21:11;;;;;;;9.95;7.35;;;-0.20;71.60;;;;;;4989632;28;20215;-72
2022/01/15 01:23:38;;;;;;;11.00;6.03;;;-0.40;71.80;;;;;;4990365;28;20308;-73
2022/01/15 01:26:10;;;;;;;8.52;6.20;;;-0.40;71.50;;;;;;4989666;28;20185;-72
2022/01/15 01:28:45;;;;;;;10.48;6.65;;;-0.40;72.00;;;;;;4990296;28;20722;-73
2022/01/15 01:31:18;;;;;;;10.57;5.88;;;-0.40;72.30;;;;;;4990363;28;20196;-72
2022/01/15 01:33:56;;;;;;;12.38;6.05;;;-0.40;72.50;;;;;;4990683;28;20193;-73
2022/01/15 01:36:37;;;;;;;11.00;6.10;;;-0.40;73.20;;;;;;4990548;28;20347;-74
2022/01/15 01:39:11;;;;;;;10.43;6.40;;;-0.40;73.40;;;;;;4990389;28;20286;-73
2022/01/15 01:41:48;;;;;;;8.27;5.68;;;-0.40;72.40;;;;;;4989245;28;20193;-73
2022/01/15 01:44:24;;;;;;;13.98;6.72;;;-0.40;72.70;;;;;;4990346;28;20200;-74
2022/01/15 01:47:03;;;;;;;8.55;5.72;;;-0.40;73.30;;;;;;4989691;28;20189;-73
2022/01/15 01:49:34;;;;;;;9.35;6.05;;;-0.50;73.10;;;;;;4990243;28;20284;-74
2022/01/15 01:52:11;;;;;;;7.03;5.50;;;-0.50;72.80;;;;;;4990300;28;20211;-73
2022/01/15 01:54:39;;;;;;;10.98;6.45;;;-0.50;72.40;;;;;;4990316;28;20566;-72
2022/01/15 01:57:06;;;;;;;10.90;5.97;;;-0.50;71.70;;;;;;4989666;28;20711;-73
2022/01/15 01:59:38;;;;;;;11.05;7.32;;;-0.60;71.80;;;;;;4990163;28;20221;-73
2022/01/15 02:02:05;;;;;;;10.30;4.97;;;-0.60;72.50;;;;;;4989743;28;20228;-73
2022/01/15 02:04:38;;;;;;;8.32;5.85;;;-0.60;73.20;;;;;;4990649;28;20231;-73
2022/01/15 02:07:06;;;;;;;9.23;6.78;;;-0.60;72.80;;;;;;4989978;28;20603;-73
2022/01/15 02:09:35;;;;;;;8.65;5.22;;;-0.60;73.10;;;;;;4990561;28;20563;-74
2022/01/15 02:12:03;;;;;;;11.48;6.65;;;-0.60;73.00;;;;;;4990049;28;20197;-78
2022/01/15 02:14:32;;;;;;;7.38;6.30;;;-0.60;73.20;;;;;;4990922;28;20235;-73
2022/01/15 02:17:01;;;;;;;8.48;5.85;;;-0.60;73.10;;;;;;4990827;28;20547;-73
2022/01/15 02:19:43;;;;;;;10.65;7.93;;;-0.60;73.40;;;;;;4989868;28;20193;-73
2022/01/15 02:25:13;;;;;;;10.52;6.78;;;-0.70;71.90;;;;;;4990174;28;20282;-73
2022/01/15 02:27:41;;;;;;;10.65;6.72;;;-0.70;71.40;;;;;;4990548;28;20192;-73
2022/01/15 02:30:09;;;;;;;12.68;8.27;;;-0.70;71.20;;;;;;4989549;28;20197;-76
2022/01/15 02:32:36;;;;;;;12.27;7.15;;;-0.70;71.90;;;;;;4990539;28;20205;-73
2022/01/15 02:35:06;;;;;;;11.20;6.45;;;-0.60;71.80;;;;;;4989649;28;20197;-73
2022/01/15 02:37:38;;;;;;;12.63;7.20;;;-0.60;71.40;;;;;;4990202;28;20189;-73
2022/01/15 02:40:10;;;;;;;14.40;7.78;;;-0.70;70.40;;;;;;4989923;28;20225;-74
2022/01/15 02:42:38;;;;;;;14.13;8.68;;;-0.70;70.40;;;;;;4990253;28;20197;-73
2022/01/15 02:45:19;;;;;;;12.60;8.15;;;-0.70;70.70;;;;;;4990442;28;20201;-73
2022/01/15 02:48:03;;;;;;;12.45;7.93;;;-0.80;71.00;;;;;;4990314;28;20192;-74
2022/01/15 02:50:32;;;;;;;11.60;7.20;;;-0.80;70.00;;;;;;4988039;28;20188;-78
2022/01/15 02:53:02;;;;;;;10.30;6.82;;;-0.80;70.10;;;;;;4990135;28;20193;-73
2022/01/15 02:55:34;;;;;;;13.77;8.18;;;-0.80;70.20;;;;;;4989080;28;20274;-73
2022/01/15 02:58:06;;;;;;;10.20;7.05;;;-0.90;70.10;;;;;;4989817;28;20663;-73
2022/01/15 03:00:35;;;;;;;10.10;6.13;;;-0.90;70.10;;;;;;4989952;28;20228;-73
2022/01/15 03:03:04;;;;;;;8.48;5.95;;;-0.90;71.40;;;;;;4993233;28;20193;-73
2022/01/15 03:05:37;;;;;;;9.70;6.85;;;-0.90;71.30;;;;;;4992696;28;20204;-73
2022/01/15 03:08:05;;;;;;;11.05;7.80;;;-1.00;71.10;;;;;;4993605;28;20201;-73
2022/01/15 03:10:41;;;;;;;13.32;7.38;;;-1.00;71.80;;;;;;4992488;28;20199;-73
2022/01/15 03:13:13;;;;;;;15.65;8.45;;;-1.00;72.50;;;;;;4993300;28;20197;-73
2022/01/15 03:15:46;;;;;;;9.55;6.18;;;-1.00;73.10;;;;;;4992741;28;20251;-73
2022/01/15 03:18:15;;;;;;;11.35;6.57;;;-1.00;73.30;;;;;;4993333;28;20204;-73
2022/01/15 03:20:47;;;;;;;11.65;6.57;;;-1.00;73.00;;;;;;4992706;28;20228;-73
2022/01/15 03:23:15;;;;;;;8.98;6.05;;;-1.00;72.80;;;;;;4992701;28;20221;-73
2022/01/15 03:25:46;;;;;;;11.68;6.20;;;-0.90;72.50;;;;;;4993217;28;20192;-73
2022/01/15 03:28:15;;;;;;;10.77;5.30;;;-0.90;72.50;;;;;;4992963;28;20212;-73
2022/01/15 03:30:44;;;;;;;12.30;6.60;;;-0.80;72.30;;;;;;4992920;28;20197;-73
2022/01/15 03:33:19;;;;;;;10.90;6.05;;;-0.80;72.70;;;;;;4992783;28;20208;-73
2022/01/15 03:35:48;;;;;;;14.02;5.85;;;-0.80;73.20;;;;;;4992787;28;20192;-73
2022/01/15 03:38:16;;;;;;;10.45;5.40;;;-0.80;73.50;;;;;;4992543;28;20263;-73
2022/01/15 03:40:43;;;;;;;9.40;6.00;;;-0.80;73.20;;;;;;4992939;28;20228;-73
2022/01/15 03:43:11;;;;;;;9.70;6.00;;;-0.70;71.40;;;;;;4992870;28;20553;-73
2022/01/15 03:45:38;;;;;;;13.32;9.43;;;-0.70;71.40;;;;;;4993042;28;20280;-73
2022/01/15 03:48:07;;;;;;;7.55;5.40;;;-0.80;71.60;;;;;;4993162;28;20196;-73
2022/01/15 03:50:39;;;;;;;14.95;7.57;;;-0.70;72.50;;;;;;4993051;28;20247;-72
2022/01/15 03:53:08;;;;;;;8.18;5.70;;;-0.60;73.00;;;;;;4980850;28;20551;-73
2022/01/15 03:55:35;;;;;;;11.02;6.82;;;-0.60;73.30;;;;;;4973309;28;20204;-73
2022/01/15 03:58:06;;;;;;;7.55;5.88;;;-0.60;72.40;;;;;;4973314;28;20204;-73
2022/01/15 04:01:00;;;;;;;8.27;6.68;;;-0.70;72.10;;;;;;4973367;28;20710;-73
2022/01/15 04:03:32;;;;;;;11.77;7.45;;;-0.70;72.60;;;;;;4973307;28;20193;-73
2022/01/15 04:06:13;;;;;;;11.20;6.78;;;-0.70;73.30;;;;;;4973543;28;20197;-73
2022/01/15 04:08:43;;;;;;;13.00;8.60;;;-0.70;73.30;;;;;;4973529;28;20680;-73
2022/01/15 04:11:21;;;;;;;13.27;7.65;;;-0.70;73.50;;;;;;4973578;28;20193;-73
2022/01/15 04:13:49;;;;;;;12.00;7.15;;;-0.70;74.30;;;;;;4972576;28;20209;-73
2022/01/15 04:16:17;;;;;;;10.15;6.30;;;-0.70;75.10;;;;;;4973386;28;20201;-73
2022/01/15 04:18:47;;;;;;;17.67;7.22;;;-0.70;75.60;;;;;;4973281;28;20193;-73
2022/01/15 04:21:16;;;;;;;13.45;6.72;;;-0.60;76.10;;;;;;4984623;28;20268;-73
2022/01/15 04:23:46;;;;;;;10.35;5.30;;;-0.60;76.60;;;;;;4992857;28;20221;-73
2022/01/15 04:26:14;;;;;;;8.15;5.03;;;-0.50;76.90;;;;;;4992476;28;20197;-73
2022/01/15 04:28:49;;;;;;;8.20;6.30;;;-0.50;77.70;;;;;;4992327;28;20588;-73
2022/01/15 04:31:19;;;;;;;14.05;7.10;;;-0.50;78.50;;;;;;4992859;28;20200;-73
2022/01/15 04:33:48;;;;;;;14.90;7.82;;;-0.50;78.70;;;;;;4992548;28;20675;-73
2022/01/15 04:36:23;;;;;;;12.45;7.25;;;-0.50;77.40;;;;;;4992476;28;20189;-73
2022/01/15 04:38:59;;;;;;;16.33;7.78;;;-0.50;77.50;;;;;;4992588;28;20195;-74
2022/01/15 04:41:30;;;;;;;9.70;6.10;;;-0.50;77.90;;;;;;4991429;28;20223;-74
2022/01/15 04:44:04;;;;;;;12.63;6.93;;;-0.50;77.50;;;;;;4981400;28;20193;-74
2022/01/15 04:46:34;;;;;;;15.85;6.43;;;-0.50;77.90;;;;;;4972636;28;20201;-73
2022/01/15 04:49:01;;;;;;;17.08;8.38;;;-0.50;78.90;;;;;;4972413;28;20381;-74
2022/01/15 04:51:31;;;;;;;13.15;7.05;;;-0.50;79.80;;;;;;4972465;28;20252;-73
2022/01/15 04:54:03;;;;;;;10.90;6.07;;;-0.40;80.60;;;;;;4982152;28;20287;-73
2022/01/15 04:56:35;;;;;;;10.00;6.47;;;-0.50;81.60;;;;;;4991793;28;20244;-73
2022/01/15 04:59:02;;;;;;;12.65;7.03;;;-0.50;81.70;;;;;;4981255;28;20245;-73
2022/01/15 05:01:31;;;;;;;12.80;6.38;;;-0.50;82.80;;;;;;4971691;28;20225;-74
2022/01/15 05:04:04;;;;;;;12.45;7.93;;;-0.50;83.10;;;;;;4984214;28;20703;-74
2022/01/15 05:06:31;;;;;;;11.63;6.75;;;-0.50;82.10;;;;;;4991303;28;20613;-74
2022/01/15 05:09:15;;;;;;;12.40;6.30;;;-0.50;82.10;;;;;;4964114;28;20200;-74
2022/01/15 05:11:47;;;;;;;11.07;6.20;;;-0.50;82.30;;;;;;4972311;28;20719;-73
2022/01/15 05:14:20;;;;;;;12.75;5.55;;;-0.50;82.80;;;;;;4971389;28;20189;-74
2022/01/15 05:16:49;;;;;;;12.65;7.50;;;-0.50;82.70;;;;;;4975117;28;20725;-74
2022/01/15 05:19:17;;;;;;;15.27;7.43;;;-0.40;82.60;;;;;;4978501;28;20273;-74
2022/01/15 05:21:47;;;;;;;13.60;6.88;;;-0.40;82.20;;;;;;4973940;28;20224;-74
2022/01/15 05:24:17;;;;;;;12.15;6.68;;;-0.40;82.40;;;;;;4990861;28;20586;-73
2022/01/15 05:26:50;;;;;;;12.85;6.35;;;-0.30;82.30;;;;;;4988416;28;20284;-74
2022/01/15 05:29:21;;;;;;;14.23;6.28;;;-0.30;82.70;;;;;;4972138;28;20268;-74
2022/01/15 05:32:06;;;;;;;12.80;6.50;;;-0.30;82.60;;;;;;4988858;28;20562;-73
2022/01/15 05:34:47;;;;;;;12.13;6.50;;;-0.20;82.30;;;;;;4991343;28;20197;-74
2022/01/15 05:37:16;;;;;;;13.02;6.13;;;-0.20;81.80;;;;;;4952822;29;20616;-74
2022/01/15 05:39:48;;;;;;;11.68;7.10;;;-0.20;83.00;;;;;;4952480;28;20186;-76
2022/01/15 05:42:15;;;;;;;15.48;7.15;;;-0.20;82.00;;;;;;4990970;28;20247;-74
2022/01/15 05:44:48;;;;;;;15.43;7.32;;;-0.30;81.40;;;;;;4991391;28;20247;-75
2022/01/15 05:47:19;;;;;;;10.43;6.30;;;-0.20;81.60;;;;;;4935609;29;20285;-74
2022/01/15 05:50:08;;;;;;;10.23;6.63;;;-0.20;82.10;;;;;;4952591;29;20281;-74
2022/01/15 05:52:35;;;;;;;12.65;8.05;;;-0.20;82.00;;;;;;4952509;29;20198;-73
2022/01/15 05:55:06;;;;;;;15.02;8.32;;;-0.20;81.60;;;;;;4954299;28;20696;-75
2022/01/15 05:57:37;;;;;;;13.80;8.05;;;-0.20;81.70;;;;;;4953258;29;20197;-74
2022/01/15 06:00:09;;;;;;;28.05;8.95;;;-0.20;81.70;;;;;;4952934;28;20640;-74
2022/01/15 06:02:46;;;;;;;15.82;9.52;;;-0.30;81.80;;;;;;4972232;28;20225;-74
2022/01/15 06:05:18;;;;;;;25.15;12.80;;;-0.20;82.50;;;;;;4972614;28;20643;-74
2022/01/15 06:07:47;;;;;;;21.58;11.32;;;-0.20;83.00;;;;;;4991039;28;20208;-74
2022/01/15 06:10:16;;;;;;;19.55;9.55;;;-0.20;83.50;;;;;;4990968;28;20193;-74
2022/01/15 06:12:44;;;;;;;24.48;9.40;;;-0.20;84.00;;;;;;4972095;28;20213;-74
2022/01/15 06:15:16;;;;;;;23.05;11.02;;;-0.20;83.80;;;;;;4971713;28;20197;-75
2022/01/15 06:17:46;;;;;;;18.50;10.02;;;-0.10;83.80;;;;;;4953477;29;20194;-73
2022/01/15 06:20:18;;;;;;;18.77;8.40;;;-0.20;83.30;;;;;;4954483;28;20280;-77
2022/01/15 06:23:02;;;;;;;19.08;10.82;;;-0.20;83.60;;;;;;4991750;28;20236;-75
2022/01/15 06:25:31;;;;;;;25.25;9.65;;;-0.20;84.50;;;;;;4973333;28;20185;-74
2022/01/15 06:28:08;;;;;;;13.00;7.85;;;-0.30;84.80;;;;;;4972347;28;20205;-74
2022/01/15 06:30:36;;;;;;;15.75;6.80;;;-0.30;85.80;;;;;;4987994;28;20327;-73
2022/01/15 06:33:08;;;;;;;12.85;5.80;;;-0.20;86.30;;;;;;4991204;28;20326;-74
2022/01/15 06:35:35;;;;;;;22.00;6.03;;;-0.20;86.20;;;;;;4992379;28;20208;-73
2022/01/15 06:38:07;;;;;;;10.35;5.40;;;-0.10;85.80;;;;;;4995721;28;20212;-74
2022/01/15 06:40:37;;;;;;;9.20;5.53;;;-0.10;85.60;;;;;;4983125;28;20194;-74
2022/01/15 06:43:05;;;;;;;14.13;7.15;;;-0.10;85.60;;;;;;4972322;28;20276;-74
2022/01/15 06:45:37;;;;;;;14.60;6.85;;;-0.10;85.50;;;;;;4988672;28;20199;-74
2022/01/15 06:48:05;;;;;;;12.13;6.25;;;-0.10;85.00;;;;;;4995534;28;20291;-73
2022/01/15 06:50:33;;;;;;;15.45;8.50;;;0.00;84.90;;;;;;4995439;28;20713;-73
2022/01/15 06:53:02;;;;;;;12.73;6.32;;;0.00;84.60;;;;;;4995198;28;20259;-73
2022/01/15 06:55:33;;;;;;;15.90;6.72;;;0.00;84.40;;;;;;4995243;28;20204;-73
2022/01/15 06:58:02;;;;;;;11.45;5.75;;;0.10;84.50;;;;;;4995755;28;20944;-74
2022/01/15 07:00:40;;;;;;;13.20;6.15;;;0.10;84.60;;;;;;4995221;28;20201;-74
2022/01/15 07:03:08;;;;;;;12.73;6.97;;;0.20;84.80;;;;;;4976253;28;20576;-74
2022/01/15 07:05:45;;;;;;;13.27;7.25;;;0.20;85.00;;;;;;4975915;28;20276;-74
2022/01/15 07:08:17;;;;;;;15.40;6.80;;;0.20;85.60;;;;;;4993721;28;20199;-74
2022/01/15 07:10:47;;;;;;;20.50;7.63;;;0.20;85.30;;;;;;4994827;28;20197;-74
2022/01/15 07:13:25;;;;;;;12.30;7.38;;;0.20;85.30;;;;;;4995475;28;20552;-74
2022/01/15 07:15:52;;;;;;;17.30;9.57;;;0.30;85.20;;;;;;4974881;28;20193;-74
2022/01/15 07:18:21;;;;;;;25.65;14.07;;;0.30;84.70;;;;;;4974701;28;20194;-73
2022/01/15 07:20:56;;;;;;;17.35;9.40;;;0.30;84.70;;;;;;4972990;28;20190;-73
2022/01/15 07:23:30;;;;;;;13.88;8.48;;;0.30;84.80;;;;;;4974665;28;20221;-74
2022/01/15 07:26:15;;;;;;;19.05;8.95;;;0.30;85.40;;;;;;4992456;28;20188;-73
2022/01/15 07:28:46;;;;;;;18.50;10.23;;;0.20;85.40;;;;;;4977586;28;20687;-74
2022/01/15 07:31:13;;;;;;;14.38;10.50;;;0.10;86.40;;;;;;4992403;28;20200;-74
2022/01/15 07:33:40;;;;;;;21.02;10.60;;;0.10;86.80;;;;;;4980906;28;20636;-74
2022/01/15 07:36:07;;;;;;;17.33;9.88;;;0.10;87.00;;;;;;4992829;28;20185;-75
2022/01/15 07:38:36;;;;;;;12.38;8.70;;;0.00;87.50;;;;;;4990487;28;20193;-77
2022/01/15 07:41:05;;;;;;;19.50;10.23;;;0.00;88.30;;;;;;4977680;28;20185;-74
2022/01/15 07:43:33;;;;;;;19.50;9.00;;;0.10;88.30;;;;;;4991217;28;20438;-67
2022/01/15 07:46:05;;;;;;;16.67;8.25;;;0.10;87.50;;;;;;4977220;28;20205;-67
2022/01/15 07:48:33;;;;;;;18.95;7.57;;;0.20;88.30;;;;;;4980376;28;20197;-67
2022/01/15 07:51:03;;;;;;;11.90;8.63;;;0.10;87.60;;;;;;4991701;28;20192;-67
2022/01/15 07:53:31;;;;;;;14.77;7.80;;;0.10;87.60;;;;;;4991560;28;20193;-67
2022/01/15 07:55:59;;;;;;;15.63;7.20;;;0.20;88.10;;;;;;4987064;28;20270;-67
2022/01/15 07:58:26;;;;;;;13.90;6.97;;;0.20;87.50;;;;;;4977756;28;20193;-67
2022/01/15 08:00:53;;;;;;;20.65;7.78;;;0.20;87.90;;;;;;4975783;28;20197;-67
2022/01/15 08:03:21;;;;;;;11.68;6.82;;;0.20;88.30;;;;;;4978016;28;20704;-67
2022/01/15 08:05:49;;;;;;;19.52;7.95;;;0.20;88.40;;;;;;4978415;28;20194;-67
2022/01/15 08:08:17;;;;;;;19.58;10.40;;;0.30;88.80;;;;;;4991348;28;20201;-67
2022/01/15 08:10:45;;;;;;;15.00;7.13;;;0.40;88.90;;;;;;4990195;28;20196;-67
2022/01/15 08:13:12;;;;;;;16.45;7.60;;;0.40;88.60;;;;;;4983209;28;20597;-67
2022/01/15 08:15:39;;;;;;;11.57;6.70;;;0.50;87.60;;;;;;4977168;28;20193;-68
2022/01/15 08:18:12;;;;;;;11.60;6.88;;;0.50;87.30;;;;;;4983736;28;20437;-67
2022/01/15 08:20:59;;;;;;;8.73;5.75;;;0.60;85.60;;;;;;4982200;28;20541;-72
2022/01/15 08:23:26;;;;;;;11.10;6.38;;;0.60;85.50;;;;;;4989926;28;20228;-68
2022/01/15 08:25:59;;;;;;;12.07;7.20;;;0.60;85.40;;;;;;4992314;28;20658;-67
2022/01/15 08:28:26;;;;;;;12.43;8.55;;;0.70;85.20;;;;;;4990864;28;20267;-67
2022/01/15 08:30:58;;;;;;;12.00;7.70;;;0.80;85.10;;;;;;4991310;28;20192;-67
2022/01/15 08:33:27;;;;;;;13.60;8.45;;;0.80;85.20;;;;;;4991371;28;20196;-67
2022/01/15 08:35:56;;;;;;;10.18;7.50;;;0.90;85.40;;;;;;4982822;28;20631;-67
2022/01/15 08:38:30;;;;;;;11.40;7.50;;;0.90;85.10;;;;;;4990502;28;20248;-67
2022/01/15 08:40:57;;;;;;;8.68;5.85;;;1.00;84.40;;;;;;4990859;28;20196;-66
2022/01/15 08:43:25;;;;;;;12.75;7.53;;;0.90;82.80;;;;;;4990768;28;20221;-67
2022/01/15 08:45:52;;;;;;;13.43;7.38;;;0.90;82.90;;;;;;4981433;28;20213;-73
2022/01/15 08:48:19;;;;;;;9.52;5.80;;;0.80;82.60;;;;;;4976663;28;20184;-68
2022/01/15 08:50:47;;;;;;;14.77;6.97;;;0.90;83.30;;;;;;4981266;28;20714;-68
2022/01/15 08:53:17;;;;;;;9.55;6.63;;;0.90;83.50;;;;;;4973872;28;20489;-69
2022/01/15 08:55:45;;;;;;;8.63;7.47;;;1.00;83.90;;;;;;4973038;28;20204;-67
2022/01/15 08:58:12;;;;;;;10.80;7.53;;;1.00;83.30;;;;;;4971794;28;20201;-69
2022/01/15 09:00:40;;;;;;;9.68;6.82;;;1.00;83.70;;;;;;4990153;28;20330;-67
2022/01/15 09:03:07;;;;;;;10.35;5.85;;;1.10;83.70;;;;;;4989848;28;20224;-67
2022/01/15 09:05:35;;;;;;;7.95;4.90;;;1.10;82.40;;;;;;4990426;28;20267;-67
2022/01/15 09:08:02;;;;;;;9.27;5.65;;;1.10;83.10;;;;;;4980060;28;20204;-70
2022/01/15 09:10:30;;;;;;;8.85;5.40;;;1.20;83.60;;;;;;4980822;28;20181;-67
2022/01/15 09:12:58;;;;;;;9.48;5.75;;;1.30;82.40;;;;;;4989883;28;20248;-67
2022/01/15 09:15:26;;;;;;;9.60;5.70;;;1.30;82.80;;;;;;4989854;28;20606;-67
2022/01/15 09:17:55;;;;;;;7.75;5.03;;;1.40;82.00;;;;;;4982335;28;20272;-69
2022/01/15 09:20:22;;;;;;;9.27;6.15;;;1.50;81.70;;;;;;4991169;28;20316;-67
2022/01/15 09:22:52;;;;;;;15.40;6.93;;;1.60;81.20;;;;;;4990631;28;20247;-68
2022/01/15 09:25:22;;;;;;;11.80;7.18;;;1.70;81.10;;;;;;4987693;28;20220;-69
2022/01/15 09:30:53;;;;;;;11.30;7.50;;;1.80;79.90;;;;;;4909004;29;20211;-69
2022/01/15 09:33:29;;;;;;;14.35;10.02;;;1.80;80.70;;;;;;4972347;28;20594;-67
2022/01/15 09:35:56;;;;;;;9.88;7.53;;;1.90;80.60;;;;;;4991493;28;20557;-67
2022/01/15 09:38:23;;;;;;;16.27;8.95;;;2.20;81.30;;;;;;4991474;28;20196;-67
2022/01/15 09:40:52;;;;;;;12.48;7.20;;;2.30;81.10;;;;;;4991464;28;20276;-67
2022/01/15 09:43:23;;;;;;;14.05;8.55;;;2.40;80.10;;;;;;4990053;28;20228;-69
2022/01/15 09:45:52;;;;;;;14.98;8.05;;;2.50;79.30;;;;;;4990558;28;20213;-69
2022/01/15 09:48:25;;;;;;;11.35;7.38;;;2.50;78.90;;;;;;4990682;28;20259;-68
2022/01/15 09:50:54;;;;;;;10.15;6.80;;;2.60;78.40;;;;;;4973355;28;20268;-67
2022/01/15 09:53:21;;;;;;;14.65;7.40;;;2.70;78.10;;;;;;4973374;28;20189;-68
2022/01/15 09:55:49;;;;;;;14.25;6.97;;;2.80;78.30;;;;;;4973242;28;20260;-67
2022/01/15 09:58:16;;;;;;;10.27;6.60;;;2.90;77.00;;;;;;4973251;28;20205;-73
2022/01/15 10:00:46;;;;;;;13.50;7.30;;;3.00;76.20;;;;;;4973356;28;20235;-67
2022/01/15 10:03:15;;;;;;;14.52;6.75;;;3.10;75.90;;;;;;4972899;28;20224;-67
2022/01/15 10:05:43;;;;;;;11.50;5.90;;;3.10;75.40;;;;;;4973040;28;20680;-67
2022/01/15 10:08:13;;;;;;;11.82;7.38;;;3.10;75.20;;;;;;4973501;28;20258;-68
2022/01/15 10:10:47;;;;;;;8.10;5.57;;;3.10;75.40;;;;;;4974553;28;20269;-68
2022/01/15 10:13:18;;;;;;;8.93;6.40;;;3.20;75.90;;;;;;4977457;28;20587;-67
2022/01/15 10:15:47;;;;;;;10.27;6.00;;;3.30;76.60;;;;;;4977668;28;20611;-68
2022/01/15 10:18:25;;;;;;;14.35;6.70;;;3.40;75.10;;;;;;4977202;28;20240;-68
2022/01/15 10:20:53;;;;;;;8.48;5.70;;;3.40;75.50;;;;;;4992279;28;20231;-68
2022/01/15 10:23:22;;;;;;;7.60;5.70;;;3.50;74.80;;;;;;4995448;28;20239;-67
2022/01/15 10:26:17;;;;;;;14.68;9.38;;;3.50;74.60;;;;;;4995087;28;20246;-69
2022/01/15 10:28:53;;;;;;;11.43;6.80;;;3.50;74.20;;;;;;4977088;28;20193;-68
2022/01/15 10:31:22;;;;;;;10.63;6.90;;;3.50;74.20;;;;;;4976935;28;20252;-68
2022/01/15 10:33:51;;;;;;;8.55;6.13;;;3.50;74.20;;;;;;4977381;28;20279;-68
2022/01/15 10:36:20;;;;;;;13.73;6.47;;;3.50;74.70;;;;;;4977416;28;20229;-68
2022/01/15 10:38:47;;;;;;;8.63;5.80;;;3.50;73.90;;;;;;4976824;28;20216;-67
2022/01/15 10:41:30;;;;;;;10.60;7.10;;;3.60;74.50;;;;;;4977047;28;20250;-67
2022/01/15 10:43:57;;;;;;;7.97;5.97;;;3.60;74.70;;;;;;4992034;28;20943;-67
2022/01/15 10:46:33;;;;;;;14.90;7.45;;;3.70;74.80;;;;;;4995430;28;20551;-67
2022/01/15 10:49:21;;;;;;;13.98;7.55;;;3.80;74.40;;;;;;4977125;28;20197;-67
2022/01/15 10:52:08;;;;;;;13.70;8.52;;;3.90;74.20;;;;;;4976984;28;20205;-67
2022/01/15 10:54:35;;;;;;;12.30;8.10;;;3.90;74.10;;;;;;4976748;28;20193;-70
2022/01/15 10:57:07;;;;;;;11.77;8.35;;;4.00;73.80;;;;;;4976858;28;20695;-67
2022/01/15 10:59:35;;;;;;;15.95;9.30;;;4.10;73.70;;;;;;4976674;28;20248;-67
2022/01/15 11:02:17;;;;;;;12.75;9.43;;;4.10;73.30;;;;;;4976698;28;20283;-67
2022/01/15 11:04:46;;;;;;;15.38;8.45;;;4.20;74.50;;;;;;4992306;28;20647;-69
2022/01/15 11:07:13;;;;;;;13.77;9.23;;;4.40;73.90;;;;;;4995013;28;20256;-68
2022/01/15 11:09:43;;;;;;;16.17;9.02;;;4.50;72.70;;;;;;4976481;28;20189;-67
2022/01/15 11:12:11;;;;;;;11.02;7.45;;;4.50;72.70;;;;;;4976708;28;20234;-68
2022/01/15 11:14:46;;;;;;;12.80;8.52;;;4.60;72.70;;;;;;4976858;28;20607;-67
2022/01/15 11:17:14;;;;;;;13.30;8.30;;;4.60;71.60;;;;;;4989539;28;20243;-68
2022/01/15 11:19:44;;;;;;;9.98;7.28;;;4.60;72.20;;;;;;4993627;28;20254;-68
2022/01/15 11:22:18;;;;;;;10.48;7.53;;;4.60;72.80;;;;;;4993037;28;20225;-67
2022/01/15 11:24:46;;;;;;;12.05;7.80;;;4.70;72.50;;;;;;4993675;28;20251;-68
2022/01/15 11:27:13;;;;;;;15.85;8.95;;;4.70;72.40;;;;;;4993607;28;20200;-68
2022/01/15 11:29:44;;;;;;;11.45;9.00;;;4.80;71.80;;;;;;4993363;28;20284;-67
2022/01/15 11:32:12;;;;;;;13.65;9.00;;;4.80;71.50;;;;;;4976092;28;20223;-68
2022/01/15 11:34:58;;;;;;;13.73;8.48;;;4.70;71.50;;;;;;4976157;28;20202;-67
2022/01/15 11:37:27;;;;;;;11.45;7.82;;;4.60;71.60;;;;;;4976020;28;20252;-67
2022/01/15 11:39:55;;;;;;;12.95;7.90;;;4.60;72.60;;;;;;4975972;28;20194;-68
2022/01/15 11:42:27;;;;;;;13.95;8.57;;;4.70;73.10;;;;;;4975541;28;20601;-69
2022/01/15 11:44:54;;;;;;;11.85;8.10;;;4.70;72.80;;;;;;4990838;28;20200;-67
2022/01/15 11:47:25;;;;;;;13.77;9.05;;;4.70;72.50;;;;;;4993973;28;20259;-67
2022/01/15 11:49:53;;;;;;;11.50;8.77;;;4.70;72.10;;;;;;4993772;28;20192;-69
2022/01/15 11:52:35;;;;;;;9.77;7.50;;;4.70;72.00;;;;;;4979871;28;20198;-67
2022/01/15 11:55:24;;;;;;;14.30;8.82;;;4.60;71.50;;;;;;4975666;28;20200;-68
2022/01/15 11:57:54;;;;;;;28.80;18.05;;;4.60;71.80;;;;;;4975670;28;20190;-68
2022/01/15 12:00:24;;;;;;;17.23;10.40;;;4.70;71.70;;;;;;4993802;28;20197;-67
2022/01/15 12:03:03;;;;;;;13.27;9.48;;;4.70;72.10;;;;;;4993696;28;20224;-67
2022/01/15 12:05:32;;;;;;;11.63;8.60;;;4.70;72.30;;;;;;4993598;28;20195;-67
2022/01/15 12:08:27;;;;;;;10.98;9.05;;;4.70;72.60;;;;;;4993307;28;20197;-67
2022/01/15 12:10:56;;;;;;;13.82;11.88;;;4.70;72.10;;;;;;4961928;28;20704;-67
2022/01/15 12:13:24;;;;;;;12.90;10.65;;;4.70;72.10;;;;;;4975320;28;20293;-68
2022/01/15 12:16:36;;;;;;;12.98;8.77;;;4.70;72.20;;;;;;4975086;28;20229;-69
2022/01/15 12:19:03;;;;;;;11.07;8.48;;;4.70;71.80;;;;;;4975263;28;20205;-67
2022/01/15 12:21:49;;;;;;;12.68;9.32;;;4.70;73.10;;;;;;4975267;28;20221;-69
2022/01/15 12:24:38;;;;;;;11.90;8.52;;;4.60;72.00;;;;;;4991592;28;20312;-68
2022/01/15 12:27:09;;;;;;;15.35;10.27;;;4.50;72.60;;;;;;4993344;28;20240;-68
2022/01/15 12:29:42;;;;;;;13.40;8.88;;;4.50;72.30;;;;;;4993134;28;20195;-68
2022/01/15 12:32:11;;;;;;;11.10;8.18;;;4.40;72.70;;;;;;4974909;28;20201;-68
2022/01/15 12:34:39;;;;;;;11.80;8.32;;;4.40;72.60;;;;;;4974140;28;20190;-67
2022/01/15 12:37:14;;;;;;;10.95;9.20;;;4.30;71.60;;;;;;4975007;28;20194;-68
2022/01/15 12:39:43;;;;;;;12.90;9.20;;;4.40;72.30;;;;;;4974892;28;20201;-67
2022/01/15 12:42:12;;;;;;;14.43;11.10;;;4.40;72.60;;;;;;4974932;28;20543;-67
2022/01/15 12:44:46;;;;;;;15.50;11.55;;;4.40;71.90;;;;;;4974731;28;20229;-68
2022/01/15 12:47:15;;;;;;;15.27;11.15;;;4.40;71.40;;;;;;4990112;28;20300;-68
2022/01/15 12:49:43;;;;;;;16.45;11.98;;;4.40;71.30;;;;;;4992926;28;20585;-67
2022/01/15 12:52:23;;;;;;;13.60;9.88;;;4.30;72.00;;;;;;4992391;28;20263;-70
2022/01/15 12:54:54;;;;;;;18.40;11.88;;;4.20;71.90;;;;;;4992830;28;20192;-67
2022/01/15 12:57:38;;;;;;;17.63;12.18;;;4.20;72.50;;;;;;4992601;28;20236;-67
2022/01/15 13:00:06;;;;;;;19.88;13.32;;;4.10;73.00;;;;;;4992816;28;20196;-67
2022/01/15 13:02:33;;;;;;;21.42;14.48;;;4.10;72.80;;;;;;4992990;28;20244;-67
2022/01/15 13:05:00;;;;;;;20.00;13.80;;;4.00;73.80;;;;;;4973393;28;20225;-68
2022/01/15 13:07:27;;;;;;;23.05;14.75;;;4.00;74.10;;;;;;4974462;28;20241;-68
2022/01/15 13:09:56;;;;;;;20.80;13.07;;;3.90;74.20;;;;;;4974241;28;20252;-67
2022/01/15 13:12:25;;;;;;;20.92;13.02;;;3.90;74.80;;;;;;4974394;28;20194;-69
2022/01/15 13:14:52;;;;;;;21.30;14.07;;;3.90;75.60;;;;;;4992576;28;20247;-68
2022/01/15 13:17:24;;;;;;;22.25;14.60;;;3.80;76.10;;;;;;4992183;28;20220;-68